sensor_id;sensor_type;location;lat;lon;timestamp;P1;durP1;ratioP1;P2;durP2;ratioP2
1320;SDS011;653;51.480;11.992;2023-04-08T00:01:09;8.93;;;6.33;;
1320;SDS011;653;51.480;11.992;2023-04-08T00:03:45;8.83;;;6.23;;
1320;SDS011;653;51.480;11.992;2023-04-08T00:06:13;10.97;;;6.37;;
1320;SDS011;653;51.480;11.992;2023-04-08T00:08:42;7.13;;;5.27;;
1320;SDS011;653;51.480;11.992;2023-04-08T00:11:12;8.07;;;6.77;;
1320;SDS011;653;51.480;11.992;2023-04-08T00:13:48;9.00;;;5.97;;
1320;SDS011;653;51.480;11.992;2023-04-08T00:16:15;7.70;;;6.10;;
1320;SDS011;653;51.480;11.992;2023-04-08T00:18:42;8.63;;;5.90;;
1320;SDS011;653;51.480;11.992;2023-04-08T00:21:08;7.50;;;5.50;;
1320;SDS011;653;51.480;11.992;2023-04-08T00:23:34;9.40;;;7.30;;
1320;SDS011;653;51.480;11.992;2023-04-08T00:26:07;8.50;;;6.70;;
1320;SDS011;653;51.480;11.992;2023-04-08T00:28:35;12.27;;;8.40;;
1320;SDS011;653;51.480;11.992;2023-04-08T00:31:01;8.40;;;5.97;;
1320;SDS011;653;51.480;11.992;2023-04-08T00:33:43;13.90;;;8.50;;
1320;SDS011;653;51.480;11.992;2023-04-08T00:36:13;10.40;;;7.20;;
1320;SDS011;653;51.480;11.992;2023-04-08T00:38:42;8.13;;;5.40;;
1320;SDS011;653;51.480;11.992;2023-04-08T00:41:11;18.40;;;13.30;;
1320;SDS011;653;51.480;11.992;2023-04-08T00:43:39;23.43;;;16.37;;
1320;SDS011;653;51.480;11.992;2023-04-08T00:46:06;12.33;;;8.07;;
1320;SDS011;653;51.480;11.992;2023-04-08T00:48:33;10.83;;;7.67;;
1320;SDS011;653;51.480;11.992;2023-04-08T00:51:00;10.37;;;8.10;;
1320;SDS011;653;51.480;11.992;2023-04-08T00:53:27;9.70;;;6.67;;
1320;SDS011;653;51.480;11.992;2023-04-08T00:55:56;8.00;;;6.00;;
1320;SDS011;653;51.480;11.992;2023-04-08T00:58:22;9.73;;;6.97;;
1320;SDS011;653;51.480;11.992;2023-04-08T01:01:24;9.97;;;7.00;;
1320;SDS011;653;51.480;11.992;2023-04-08T01:09:38;7.07;;;5.43;;
1320;SDS011;653;51.480;11.992;2023-04-08T01:12:10;7.43;;;5.33;;
1320;SDS011;653;51.480;11.992;2023-04-08T01:14:38;9.60;;;6.47;;
1320;SDS011;653;51.480;11.992;2023-04-08T01:17:08;9.30;;;7.03;;
1320;SDS011;653;51.480;11.992;2023-04-08T01:19:36;13.83;;;7.63;;
1320;SDS011;653;51.480;11.992;2023-04-08T01:22:16;9.13;;;6.73;;
1320;SDS011;653;51.480;11.992;2023-04-08T01:25:07;10.53;;;6.87;;
1320;SDS011;653;51.480;11.992;2023-04-08T01:27:38;9.03;;;6.33;;
1320;SDS011;653;51.480;11.992;2023-04-08T01:30:05;9.03;;;6.30;;
1320;SDS011;653;51.480;11.992;2023-04-08T01:32:33;9.30;;;6.17;;
1320;SDS011;653;51.480;11.992;2023-04-08T01:35:01;10.27;;;7.13;;
1320;SDS011;653;51.480;11.992;2023-04-08T01:37:30;7.47;;;5.47;;
1320;SDS011;653;51.480;11.992;2023-04-08T01:39:58;11.10;;;6.90;;
1320;SDS011;653;51.480;11.992;2023-04-08T01:42:26;9.30;;;6.77;;
1320;SDS011;653;51.480;11.992;2023-04-08T01:44:54;9.73;;;6.40;;
1320;SDS011;653;51.480;11.992;2023-04-08T01:47:22;8.00;;;5.90;;
1320;SDS011;653;51.480;11.992;2023-04-08T01:49:53;10.20;;;7.30;;
1320;SDS011;653;51.480;11.992;2023-04-08T01:52:21;9.20;;;6.43;;
1320;SDS011;653;51.480;11.992;2023-04-08T01:54:48;10.23;;;6.90;;
1320;SDS011;653;51.480;11.992;2023-04-08T01:57:26;10.83;;;7.17;;
1320;SDS011;653;51.480;11.992;2023-04-08T01:59:55;13.73;;;7.67;;
1320;SDS011;653;51.480;11.992;2023-04-08T02:02:23;15.30;;;8.73;;
1320;SDS011;653;51.480;11.992;2023-04-08T02:04:52;10.07;;;7.30;;
1320;SDS011;653;51.480;11.992;2023-04-08T02:07:20;12.07;;;7.30;;
1320;SDS011;653;51.480;11.992;2023-04-08T02:09:46;10.40;;;7.20;;
1320;SDS011;653;51.480;11.992;2023-04-08T02:12:13;10.17;;;7.20;;
1320;SDS011;653;51.480;11.992;2023-04-08T02:14:40;8.70;;;6.70;;
1320;SDS011;653;51.480;11.992;2023-04-08T02:17:13;10.97;;;8.17;;
1320;SDS011;653;51.480;11.992;2023-04-08T02:20:05;12.40;;;7.23;;
1320;SDS011;653;51.480;11.992;2023-04-08T02:25:04;9.70;;;6.57;;
1320;SDS011;653;51.480;11.992;2023-04-08T02:27:39;10.20;;;7.73;;
1320;SDS011;653;51.480;11.992;2023-04-08T02:30:06;11.50;;;7.80;;
1320;SDS011;653;51.480;11.992;2023-04-08T02:32:37;10.90;;;6.67;;
1320;SDS011;653;51.480;11.992;2023-04-08T02:35:04;8.50;;;5.73;;
1320;SDS011;653;51.480;11.992;2023-04-08T02:37:31;9.70;;;5.90;;
1320;SDS011;653;51.480;11.992;2023-04-08T02:39:58;10.03;;;6.30;;
1320;SDS011;653;51.480;11.992;2023-04-08T02:42:25;6.80;;;4.93;;
1320;SDS011;653;51.480;11.992;2023-04-08T02:44:52;8.93;;;6.23;;
1320;SDS011;653;51.480;11.992;2023-04-08T02:47:23;7.03;;;5.30;;
1320;SDS011;653;51.480;11.992;2023-04-08T02:49:50;9.67;;;6.20;;
1320;SDS011;653;51.480;11.992;2023-04-08T02:52:17;11.67;;;6.43;;
1320;SDS011;653;51.480;11.992;2023-04-08T02:54:46;8.93;;;5.63;;
1320;SDS011;653;51.480;11.992;2023-04-08T02:57:13;9.70;;;5.27;;
1320;SDS011;653;51.480;11.992;2023-04-08T02:59:41;11.00;;;6.90;;
1320;SDS011;653;51.480;11.992;2023-04-08T03:02:08;9.70;;;6.87;;
1320;SDS011;653;51.480;11.992;2023-04-08T03:04:34;9.37;;;6.20;;
1320;SDS011;653;51.480;11.992;2023-04-08T03:06:59;11.50;;;6.23;;
1320;SDS011;653;51.480;11.992;2023-04-08T03:09:26;9.40;;;6.80;;
1320;SDS011;653;51.480;11.992;2023-04-08T03:11:53;9.77;;;6.30;;
1320;SDS011;653;51.480;11.992;2023-04-08T03:14:24;9.77;;;6.40;;
1320;SDS011;653;51.480;11.992;2023-04-08T03:16:54;19.03;;;6.63;;
1320;SDS011;653;51.480;11.992;2023-04-08T03:19:19;12.80;;;7.47;;
1320;SDS011;653;51.480;11.992;2023-04-08T03:21:46;11.37;;;6.47;;
1320;SDS011;653;51.480;11.992;2023-04-08T03:24:12;13.77;;;7.20;;
1320;SDS011;653;51.480;11.992;2023-04-08T03:26:38;12.07;;;7.23;;
1320;SDS011;653;51.480;11.992;2023-04-08T03:29:06;13.50;;;8.90;;
1320;SDS011;653;51.480;11.992;2023-04-08T03:31:31;14.07;;;7.63;;
1320;SDS011;653;51.480;11.992;2023-04-08T03:33:58;14.67;;;8.90;;
1320;SDS011;653;51.480;11.992;2023-04-08T03:36:25;16.07;;;8.60;;
1320;SDS011;653;51.480;11.992;2023-04-08T03:38:54;13.17;;;8.77;;
1320;SDS011;653;51.480;11.992;2023-04-08T03:41:21;14.97;;;8.47;;
1320;SDS011;653;51.480;11.992;2023-04-08T03:43:48;14.40;;;7.67;;
1320;SDS011;653;51.480;11.992;2023-04-08T03:46:15;16.03;;;9.03;;
1320;SDS011;653;51.480;11.992;2023-04-08T03:48:42;15.93;;;9.07;;
1320;SDS011;653;51.480;11.992;2023-04-08T03:51:09;16.87;;;9.17;;
1320;SDS011;653;51.480;11.992;2023-04-08T03:53:36;17.63;;;9.30;;
1320;SDS011;653;51.480;11.992;2023-04-08T03:56:02;18.07;;;9.77;;
1320;SDS011;653;51.480;11.992;2023-04-08T03:58:28;13.53;;;8.97;;
1320;SDS011;653;51.480;11.992;2023-04-08T04:00:54;16.47;;;9.00;;
1320;SDS011;653;51.480;11.992;2023-04-08T04:03:21;21.60;;;9.87;;
1320;SDS011;653;51.480;11.992;2023-04-08T04:05:48;19.83;;;11.00;;
1320;SDS011;653;51.480;11.992;2023-04-08T04:08:13;15.00;;;9.90;;
1320;SDS011;653;51.480;11.992;2023-04-08T04:10:40;16.33;;;10.80;;
1320;SDS011;653;51.480;11.992;2023-04-08T04:13:06;17.67;;;9.10;;
1320;SDS011;653;51.480;11.992;2023-04-08T04:15:37;17.50;;;10.07;;
1320;SDS011;653;51.480;11.992;2023-04-08T04:18:05;14.93;;;8.57;;
1320;SDS011;653;51.480;11.992;2023-04-08T04:20:32;13.40;;;8.73;;
1320;SDS011;653;51.480;11.992;2023-04-08T04:22:59;18.80;;;9.40;;
1320;SDS011;653;51.480;11.992;2023-04-08T04:25:25;15.20;;;9.33;;
1320;SDS011;653;51.480;11.992;2023-04-08T04:27:52;15.97;;;9.80;;
1320;SDS011;653;51.480;11.992;2023-04-08T04:30:19;13.50;;;7.70;;
1320;SDS011;653;51.480;11.992;2023-04-08T04:32:46;13.87;;;9.10;;
1320;SDS011;653;51.480;11.992;2023-04-08T04:35:11;15.53;;;8.80;;
1320;SDS011;653;51.480;11.992;2023-04-08T04:37:38;14.40;;;8.77;;
1320;SDS011;653;51.480;11.992;2023-04-08T04:40:05;12.17;;;7.40;;
1320;SDS011;653;51.480;11.992;2023-04-08T04:42:33;12.83;;;7.60;;
1320;SDS011;653;51.480;11.992;2023-04-08T04:44:59;11.80;;;7.87;;
1320;SDS011;653;51.480;11.992;2023-04-08T04:47:26;12.93;;;7.57;;
1320;SDS011;653;51.480;11.992;2023-04-08T04:49:52;13.80;;;8.20;;
1320;SDS011;653;51.480;11.992;2023-04-08T04:52:19;12.27;;;7.93;;
1320;SDS011;653;51.480;11.992;2023-04-08T04:54:46;10.80;;;6.57;;
1320;SDS011;653;51.480;11.992;2023-04-08T04:57:12;15.60;;;8.33;;
1320;SDS011;653;51.480;11.992;2023-04-08T04:59:39;11.60;;;7.60;;
1320;SDS011;653;51.480;11.992;2023-04-08T05:02:05;14.33;;;7.10;;
1320;SDS011;653;51.480;11.992;2023-04-08T05:04:32;11.50;;;7.90;;
1320;SDS011;653;51.480;11.992;2023-04-08T05:06:59;11.00;;;7.27;;
1320;SDS011;653;51.480;11.992;2023-04-08T05:09:26;13.70;;;8.07;;
1320;SDS011;653;51.480;11.992;2023-04-08T05:11:53;14.53;;;9.10;;
1320;SDS011;653;51.480;11.992;2023-04-08T05:14:20;11.37;;;7.63;;
1320;SDS011;653;51.480;11.992;2023-04-08T05:16:47;9.73;;;7.43;;
1320;SDS011;653;51.480;11.992;2023-04-08T05:19:14;9.40;;;6.77;;
1320;SDS011;653;51.480;11.992;2023-04-08T05:21:41;11.80;;;7.57;;
1320;SDS011;653;51.480;11.992;2023-04-08T05:24:07;11.23;;;7.53;;
1320;SDS011;653;51.480;11.992;2023-04-08T05:26:33;11.20;;;6.50;;
1320;SDS011;653;51.480;11.992;2023-04-08T05:29:00;14.10;;;6.73;;
1320;SDS011;653;51.480;11.992;2023-04-08T05:31:27;12.90;;;7.40;;
1320;SDS011;653;51.480;11.992;2023-04-08T05:33:54;11.83;;;7.70;;
1320;SDS011;653;51.480;11.992;2023-04-08T05:36:21;13.97;;;7.37;;
1320;SDS011;653;51.480;11.992;2023-04-08T05:38:47;12.37;;;7.80;;
1320;SDS011;653;51.480;11.992;2023-04-08T05:41:14;13.07;;;9.07;;
1320;SDS011;653;51.480;11.992;2023-04-08T05:43:40;15.27;;;8.60;;
1320;SDS011;653;51.480;11.992;2023-04-08T05:46:09;12.47;;;7.87;;
1320;SDS011;653;51.480;11.992;2023-04-08T05:48:36;12.63;;;7.83;;
1320;SDS011;653;51.480;11.992;2023-04-08T05:51:03;11.83;;;7.97;;
1320;SDS011;653;51.480;11.992;2023-04-08T05:53:28;12.73;;;7.80;;
1320;SDS011;653;51.480;11.992;2023-04-08T05:55:54;11.33;;;7.70;;
1320;SDS011;653;51.480;11.992;2023-04-08T05:58:20;13.87;;;8.47;;
1320;SDS011;653;51.480;11.992;2023-04-08T06:00:47;12.07;;;8.47;;
1320;SDS011;653;51.480;11.992;2023-04-08T06:03:14;10.40;;;7.20;;
1320;SDS011;653;51.480;11.992;2023-04-08T06:05:41;11.40;;;9.17;;
1320;SDS011;653;51.480;11.992;2023-04-08T06:08:09;11.57;;;8.10;;
1320;SDS011;653;51.480;11.992;2023-04-08T06:10:35;13.07;;;7.30;;
1320;SDS011;653;51.480;11.992;2023-04-08T06:13:02;11.13;;;7.50;;
1320;SDS011;653;51.480;11.992;2023-04-08T06:15:31;12.90;;;8.10;;
1320;SDS011;653;51.480;11.992;2023-04-08T06:17:59;9.80;;;7.67;;
1320;SDS011;653;51.480;11.992;2023-04-08T06:20:27;12.10;;;7.90;;
1320;SDS011;653;51.480;11.992;2023-04-08T06:22:53;13.37;;;7.93;;
1320;SDS011;653;51.480;11.992;2023-04-08T06:25:20;12.47;;;7.93;;
1320;SDS011;653;51.480;11.992;2023-04-08T06:27:46;13.37;;;8.80;;
1320;SDS011;653;51.480;11.992;2023-04-08T06:30:13;13.33;;;8.60;;
1320;SDS011;653;51.480;11.992;2023-04-08T06:32:39;13.10;;;7.93;;
1320;SDS011;653;51.480;11.992;2023-04-08T06:35:06;15.03;;;9.40;;
1320;SDS011;653;51.480;11.992;2023-04-08T06:37:33;13.80;;;7.67;;
1320;SDS011;653;51.480;11.992;2023-04-08T06:40:04;10.93;;;7.73;;
1320;SDS011;653;51.480;11.992;2023-04-08T06:42:31;13.27;;;7.47;;
1320;SDS011;653;51.480;11.992;2023-04-08T06:44:57;11.80;;;7.70;;
1320;SDS011;653;51.480;11.992;2023-04-08T06:47:24;11.70;;;7.73;;
1320;SDS011;653;51.480;11.992;2023-04-08T06:49:51;11.97;;;7.37;;
1320;SDS011;653;51.480;11.992;2023-04-08T06:52:18;8.73;;;6.63;;
1320;SDS011;653;51.480;11.992;2023-04-08T06:54:44;11.07;;;6.80;;
1320;SDS011;653;51.480;11.992;2023-04-08T06:57:12;12.80;;;6.90;;
1320;SDS011;653;51.480;11.992;2023-04-08T06:59:38;8.53;;;6.90;;
1320;SDS011;653;51.480;11.992;2023-04-08T07:02:05;8.57;;;6.13;;
1320;SDS011;653;51.480;11.992;2023-04-08T07:04:31;10.60;;;7.40;;
1320;SDS011;653;51.480;11.992;2023-04-08T07:06:58;9.73;;;7.00;;
1320;SDS011;653;51.480;11.992;2023-04-08T07:09:24;10.53;;;7.30;;
1320;SDS011;653;51.480;11.992;2023-04-08T07:11:51;9.17;;;7.33;;
1320;SDS011;653;51.480;11.992;2023-04-08T07:14:17;9.07;;;6.30;;
1320;SDS011;653;51.480;11.992;2023-04-08T07:16:45;8.90;;;6.13;;
1320;SDS011;653;51.480;11.992;2023-04-08T07:19:12;10.27;;;6.20;;
1320;SDS011;653;51.480;11.992;2023-04-08T07:21:39;8.87;;;7.00;;
1320;SDS011;653;51.480;11.992;2023-04-08T07:24:04;11.23;;;7.43;;
1320;SDS011;653;51.480;11.992;2023-04-08T07:26:31;8.50;;;6.23;;
1320;SDS011;653;51.480;11.992;2023-04-08T07:28:58;10.40;;;6.57;;
1320;SDS011;653;51.480;11.992;2023-04-08T07:31:23;11.33;;;7.47;;
1320;SDS011;653;51.480;11.992;2023-04-08T07:33:51;10.13;;;6.83;;
1320;SDS011;653;51.480;11.992;2023-04-08T07:36:19;9.37;;;6.97;;
1320;SDS011;653;51.480;11.992;2023-04-08T07:38:46;9.83;;;7.23;;
1320;SDS011;653;51.480;11.992;2023-04-08T07:41:13;9.40;;;6.60;;
1320;SDS011;653;51.480;11.992;2023-04-08T07:43:40;10.20;;;7.37;;
1320;SDS011;653;51.480;11.992;2023-04-08T07:46:06;10.93;;;6.80;;
1320;SDS011;653;51.480;11.992;2023-04-08T07:48:33;11.23;;;7.27;;
1320;SDS011;653;51.480;11.992;2023-04-08T07:51:04;11.77;;;7.40;;
1320;SDS011;653;51.480;11.992;2023-04-08T07:53:32;14.90;;;8.07;;
1320;SDS011;653;51.480;11.992;2023-04-08T07:55:59;11.80;;;7.63;;
1320;SDS011;653;51.480;11.992;2023-04-08T07:58:26;15.57;;;9.20;;
1320;SDS011;653;51.480;11.992;2023-04-08T08:00:53;13.80;;;9.60;;
1320;SDS011;653;51.480;11.992;2023-04-08T08:03:19;13.53;;;10.43;;
1320;SDS011;653;51.480;11.992;2023-04-08T08:05:46;14.63;;;10.00;;
1320;SDS011;653;51.480;11.992;2023-04-08T08:08:13;14.50;;;10.13;;
1320;SDS011;653;51.480;11.992;2023-04-08T08:10:40;16.90;;;9.60;;
1320;SDS011;653;51.480;11.992;2023-04-08T08:13:08;15.67;;;10.47;;
1320;SDS011;653;51.480;11.992;2023-04-08T08:15:33;15.00;;;10.20;;
1320;SDS011;653;51.480;11.992;2023-04-08T08:18:00;16.60;;;10.67;;
1320;SDS011;653;51.480;11.992;2023-04-08T08:20:27;20.57;;;11.33;;
1320;SDS011;653;51.480;11.992;2023-04-08T08:22:54;19.03;;;12.37;;
1320;SDS011;653;51.480;11.992;2023-04-08T08:25:21;21.73;;;14.23;;
1320;SDS011;653;51.480;11.992;2023-04-08T08:27:48;18.00;;;12.23;;
1320;SDS011;653;51.480;11.992;2023-04-08T08:30:15;21.30;;;14.03;;
1320;SDS011;653;51.480;11.992;2023-04-08T08:32:42;20.60;;;12.60;;
1320;SDS011;653;51.480;11.992;2023-04-08T08:35:07;26.57;;;15.27;;
1320;SDS011;653;51.480;11.992;2023-04-08T08:37:34;21.30;;;14.33;;
1320;SDS011;653;51.480;11.992;2023-04-08T08:40:01;25.53;;;15.83;;
1320;SDS011;653;51.480;11.992;2023-04-08T08:42:27;20.93;;;14.97;;
1320;SDS011;653;51.480;11.992;2023-04-08T08:44:56;24.97;;;14.90;;
1320;SDS011;653;51.480;11.992;2023-04-08T08:47:26;26.50;;;17.27;;
1320;SDS011;653;51.480;11.992;2023-04-08T08:49:53;24.97;;;16.40;;
1320;SDS011;653;51.480;11.992;2023-04-08T08:52:20;31.17;;;19.00;;
1320;SDS011;653;51.480;11.992;2023-04-08T08:54:46;29.60;;;17.23;;
1320;SDS011;653;51.480;11.992;2023-04-08T08:57:17;26.97;;;19.23;;
1320;SDS011;653;51.480;11.992;2023-04-08T08:59:47;31.33;;;18.07;;
1320;SDS011;653;51.480;11.992;2023-04-08T09:02:29;28.57;;;17.80;;
1320;SDS011;653;51.480;11.992;2023-04-08T09:05:00;32.60;;;20.03;;
1320;SDS011;653;51.480;11.992;2023-04-08T09:07:29;27.83;;;17.47;;
1320;SDS011;653;51.480;11.992;2023-04-08T09:09:57;31.80;;;18.93;;
1320;SDS011;653;51.480;11.992;2023-04-08T09:12:24;30.70;;;18.53;;
1320;SDS011;653;51.480;11.992;2023-04-08T09:15:06;31.77;;;21.07;;
1320;SDS011;653;51.480;11.992;2023-04-08T09:17:35;29.63;;;19.27;;
1320;SDS011;653;51.480;11.992;2023-04-08T09:25:29;32.17;;;20.70;;
1320;SDS011;653;51.480;11.992;2023-04-08T09:27:58;34.93;;;22.90;;
1320;SDS011;653;51.480;11.992;2023-04-08T09:30:30;36.20;;;22.90;;
1320;SDS011;653;51.480;11.992;2023-04-08T09:32:56;64.03;;;37.70;;
1320;SDS011;653;51.480;11.992;2023-04-08T09:35:23;34.70;;;21.77;;
1320;SDS011;653;51.480;11.992;2023-04-08T09:37:51;30.53;;;20.97;;
1320;SDS011;653;51.480;11.992;2023-04-08T09:40:17;41.27;;;25.90;;
1320;SDS011;653;51.480;11.992;2023-04-08T09:42:45;45.47;;;28.00;;
1320;SDS011;653;51.480;11.992;2023-04-08T09:45:16;34.60;;;21.93;;
1320;SDS011;653;51.480;11.992;2023-04-08T09:50:35;40.90;;;24.23;;
1320;SDS011;653;51.480;11.992;2023-04-08T09:53:12;34.23;;;21.67;;
1320;SDS011;653;51.480;11.992;2023-04-08T09:55:41;26.83;;;18.10;;
1320;SDS011;653;51.480;11.992;2023-04-08T09:58:18;36.90;;;22.33;;
1320;SDS011;653;51.480;11.992;2023-04-08T10:00:50;37.80;;;25.70;;
1320;SDS011;653;51.480;11.992;2023-04-08T10:03:34;32.20;;;20.90;;
1320;SDS011;653;51.480;11.992;2023-04-08T10:06:13;34.50;;;23.37;;
1320;SDS011;653;51.480;11.992;2023-04-08T10:08:40;54.87;;;32.67;;
1320;SDS011;653;51.480;11.992;2023-04-08T10:11:07;29.20;;;21.10;;
1320;SDS011;653;51.480;11.992;2023-04-08T10:13:35;36.70;;;23.10;;
1320;SDS011;653;51.480;11.992;2023-04-08T10:18:53;25.63;;;18.37;;
1320;SDS011;653;51.480;11.992;2023-04-08T10:24:05;34.33;;;22.20;;
1320;SDS011;653;51.480;11.992;2023-04-08T10:26:35;28.17;;;20.70;;
1320;SDS011;653;51.480;11.992;2023-04-08T10:31:47;26.67;;;20.23;;
1320;SDS011;653;51.480;11.992;2023-04-08T10:34:24;29.83;;;22.33;;
1320;SDS011;653;51.480;11.992;2023-04-08T10:36:52;28.17;;;20.97;;
1320;SDS011;653;51.480;11.992;2023-04-08T10:39:21;28.40;;;19.77;;
1320;SDS011;653;51.480;11.992;2023-04-08T10:41:49;30.10;;;22.23;;
1320;SDS011;653;51.480;11.992;2023-04-08T10:44:19;30.03;;;21.33;;
1320;SDS011;653;51.480;11.992;2023-04-08T10:46:47;27.03;;;20.07;;
1320;SDS011;653;51.480;11.992;2023-04-08T10:49:15;26.00;;;20.07;;
1320;SDS011;653;51.480;11.992;2023-04-08T10:51:44;32.20;;;21.40;;
1320;SDS011;653;51.480;11.992;2023-04-08T10:54:14;28.60;;;19.90;;
1320;SDS011;653;51.480;11.992;2023-04-08T10:56:48;46.90;;;32.50;;
1320;SDS011;653;51.480;11.992;2023-04-08T10:59:25;41.43;;;28.60;;
1320;SDS011;653;51.480;11.992;2023-04-08T11:01:54;29.83;;;22.83;;
1320;SDS011;653;51.480;11.992;2023-04-08T11:04:21;26.63;;;19.70;;
1320;SDS011;653;51.480;11.992;2023-04-08T11:06:47;27.23;;;18.83;;
1320;SDS011;653;51.480;11.992;2023-04-08T11:09:16;27.73;;;20.20;;
1320;SDS011;653;51.480;11.992;2023-04-08T11:11:43;29.90;;;23.33;;
1320;SDS011;653;51.480;11.992;2023-04-08T11:14:11;31.40;;;25.40;;
1320;SDS011;653;51.480;11.992;2023-04-08T11:16:38;22.60;;;17.77;;
1320;SDS011;653;51.480;11.992;2023-04-08T11:19:07;27.43;;;19.67;;
1320;SDS011;653;51.480;11.992;2023-04-08T11:21:36;23.70;;;19.73;;
1320;SDS011;653;51.480;11.992;2023-04-08T11:24:09;23.30;;;17.93;;
1320;SDS011;653;51.480;11.992;2023-04-08T11:26:39;23.50;;;17.97;;
1320;SDS011;653;51.480;11.992;2023-04-08T11:29:07;26.90;;;19.07;;
1320;SDS011;653;51.480;11.992;2023-04-08T11:31:38;27.60;;;19.50;;
1320;SDS011;653;51.480;11.992;2023-04-08T11:34:09;25.23;;;19.03;;
1320;SDS011;653;51.480;11.992;2023-04-08T11:36:34;25.30;;;18.40;;
1320;SDS011;653;51.480;11.992;2023-04-08T11:39:05;22.97;;;16.80;;
1320;SDS011;653;51.480;11.992;2023-04-08T11:41:35;23.33;;;18.20;;
1320;SDS011;653;51.480;11.992;2023-04-08T11:44:02;37.60;;;25.13;;
1320;SDS011;653;51.480;11.992;2023-04-08T11:46:29;28.43;;;19.90;;
1320;SDS011;653;51.480;11.992;2023-04-08T11:48:57;22.53;;;18.40;;
1320;SDS011;653;51.480;11.992;2023-04-08T11:51:34;24.73;;;19.73;;
1320;SDS011;653;51.480;11.992;2023-04-08T11:54:08;26.57;;;19.97;;
1320;SDS011;653;51.480;11.992;2023-04-08T11:56:53;22.53;;;17.57;;
1320;SDS011;653;51.480;11.992;2023-04-08T11:59:22;30.03;;;21.17;;
1320;SDS011;653;51.480;11.992;2023-04-08T12:01:56;44.37;;;28.00;;
1320;SDS011;653;51.480;11.992;2023-04-08T12:04:32;31.00;;;22.00;;
1320;SDS011;653;51.480;11.992;2023-04-08T12:06:58;28.73;;;22.17;;
1320;SDS011;653;51.480;11.992;2023-04-08T12:09:24;28.63;;;20.73;;
1320;SDS011;653;51.480;11.992;2023-04-08T12:11:54;23.00;;;18.13;;
1320;SDS011;653;51.480;11.992;2023-04-08T12:14:33;24.37;;;17.80;;
1320;SDS011;653;51.480;11.992;2023-04-08T12:16:58;25.27;;;19.20;;
1320;SDS011;653;51.480;11.992;2023-04-08T12:19:25;30.80;;;20.20;;
1320;SDS011;653;51.480;11.992;2023-04-08T12:21:55;31.27;;;22.60;;
1320;SDS011;653;51.480;11.992;2023-04-08T12:24:22;27.03;;;18.03;;
1320;SDS011;653;51.480;11.992;2023-04-08T12:26:52;27.47;;;17.70;;
1320;SDS011;653;51.480;11.992;2023-04-08T12:29:22;20.60;;;15.33;;
1320;SDS011;653;51.480;11.992;2023-04-08T12:31:49;27.93;;;17.53;;
1320;SDS011;653;51.480;11.992;2023-04-08T12:34:14;26.17;;;17.10;;
1320;SDS011;653;51.480;11.992;2023-04-08T12:36:48;24.70;;;19.23;;
1320;SDS011;653;51.480;11.992;2023-04-08T12:39:16;20.43;;;15.77;;
1320;SDS011;653;51.480;11.992;2023-04-08T12:41:46;25.40;;;18.67;;
1320;SDS011;653;51.480;11.992;2023-04-08T12:44:16;26.70;;;18.10;;
1320;SDS011;653;51.480;11.992;2023-04-08T12:46:57;19.20;;;15.37;;
1320;SDS011;653;51.480;11.992;2023-04-08T12:49:24;25.63;;;18.37;;
1320;SDS011;653;51.480;11.992;2023-04-08T12:51:55;25.80;;;17.87;;
1320;SDS011;653;51.480;11.992;2023-04-08T12:54:23;19.70;;;16.00;;
1320;SDS011;653;51.480;11.992;2023-04-08T12:56:51;21.60;;;15.80;;
1320;SDS011;653;51.480;11.992;2023-04-08T12:59:18;19.90;;;15.53;;
1320;SDS011;653;51.480;11.992;2023-04-08T13:01:45;20.40;;;15.67;;
1320;SDS011;653;51.480;11.992;2023-04-08T13:04:14;20.73;;;15.03;;
1320;SDS011;653;51.480;11.992;2023-04-08T13:06:41;26.77;;;17.13;;
1320;SDS011;653;51.480;11.992;2023-04-08T13:09:08;27.47;;;17.60;;
1320;SDS011;653;51.480;11.992;2023-04-08T13:11:35;22.67;;;16.37;;
1320;SDS011;653;51.480;11.992;2023-04-08T13:14:04;33.50;;;20.77;;
1320;SDS011;653;51.480;11.992;2023-04-08T13:16:36;24.13;;;17.97;;
1320;SDS011;653;51.480;11.992;2023-04-08T13:19:02;31.83;;;21.03;;
1320;SDS011;653;51.480;11.992;2023-04-08T13:21:29;24.13;;;19.03;;
1320;SDS011;653;51.480;11.992;2023-04-08T13:23:57;27.53;;;18.20;;
1320;SDS011;653;51.480;11.992;2023-04-08T13:26:24;22.30;;;14.60;;
1320;SDS011;653;51.480;11.992;2023-04-08T13:28:50;22.57;;;15.50;;
1320;SDS011;653;51.480;11.992;2023-04-08T13:31:17;23.00;;;15.57;;
1320;SDS011;653;51.480;11.992;2023-04-08T13:33:44;31.43;;;19.10;;
1320;SDS011;653;51.480;11.992;2023-04-08T13:36:11;36.10;;;21.13;;
1320;SDS011;653;51.480;11.992;2023-04-08T13:38:38;32.20;;;19.60;;
1320;SDS011;653;51.480;11.992;2023-04-08T13:41:09;29.77;;;19.40;;
1320;SDS011;653;51.480;11.992;2023-04-08T13:43:34;28.23;;;19.10;;
1320;SDS011;653;51.480;11.992;2023-04-08T13:46:01;29.20;;;20.60;;
1320;SDS011;653;51.480;11.992;2023-04-08T13:48:31;27.70;;;18.63;;
1320;SDS011;653;51.480;11.992;2023-04-08T13:50:59;24.17;;;15.87;;
1320;SDS011;653;51.480;11.992;2023-04-08T13:56:13;31.90;;;20.13;;
1320;SDS011;653;51.480;11.992;2023-04-08T13:58:42;31.30;;;20.30;;
1320;SDS011;653;51.480;11.992;2023-04-08T14:01:07;25.67;;;16.60;;
1320;SDS011;653;51.480;11.992;2023-04-08T14:03:36;27.33;;;19.30;;
1320;SDS011;653;51.480;11.992;2023-04-08T14:06:03;24.43;;;15.77;;
1320;SDS011;653;51.480;11.992;2023-04-08T14:08:36;24.83;;;18.03;;
1320;SDS011;653;51.480;11.992;2023-04-08T14:11:02;20.90;;;15.60;;
1320;SDS011;653;51.480;11.992;2023-04-08T14:13:28;22.77;;;16.80;;
1320;SDS011;653;51.480;11.992;2023-04-08T14:15:54;27.63;;;19.90;;
1320;SDS011;653;51.480;11.992;2023-04-08T14:18:23;28.13;;;20.23;;
1320;SDS011;653;51.480;11.992;2023-04-08T14:20:55;26.00;;;17.03;;
1320;SDS011;653;51.480;11.992;2023-04-08T14:23:22;24.53;;;17.33;;
1320;SDS011;653;51.480;11.992;2023-04-08T14:26:02;27.50;;;17.73;;
1320;SDS011;653;51.480;11.992;2023-04-08T14:28:29;23.50;;;18.60;;
1320;SDS011;653;51.480;11.992;2023-04-08T14:30:55;30.07;;;18.47;;
1320;SDS011;653;51.480;11.992;2023-04-08T14:33:21;27.87;;;19.20;;
1320;SDS011;653;51.480;11.992;2023-04-08T14:35:49;27.00;;;20.00;;
1320;SDS011;653;51.480;11.992;2023-04-08T14:38:17;23.30;;;18.07;;
1320;SDS011;653;51.480;11.992;2023-04-08T14:40:46;30.10;;;20.83;;
1320;SDS011;653;51.480;11.992;2023-04-08T14:43:13;25.60;;;19.60;;
1320;SDS011;653;51.480;11.992;2023-04-08T14:45:40;28.70;;;19.30;;
1320;SDS011;653;51.480;11.992;2023-04-08T14:48:09;24.40;;;17.80;;
1320;SDS011;653;51.480;11.992;2023-04-08T14:50:37;28.33;;;20.50;;
1320;SDS011;653;51.480;11.992;2023-04-08T14:53:06;31.60;;;21.50;;
1320;SDS011;653;51.480;11.992;2023-04-08T14:55:33;29.10;;;17.60;;
1320;SDS011;653;51.480;11.992;2023-04-08T14:58:00;27.60;;;18.53;;
1320;SDS011;653;51.480;11.992;2023-04-08T15:00:26;27.23;;;19.03;;
1320;SDS011;653;51.480;11.992;2023-04-08T15:02:53;27.73;;;18.40;;
1320;SDS011;653;51.480;11.992;2023-04-08T15:05:20;26.17;;;17.87;;
1320;SDS011;653;51.480;11.992;2023-04-08T15:07:46;26.97;;;19.27;;
1320;SDS011;653;51.480;11.992;2023-04-08T15:10:13;25.30;;;17.17;;
1320;SDS011;653;51.480;11.992;2023-04-08T15:12:39;27.30;;;18.80;;
1320;SDS011;653;51.480;11.992;2023-04-08T15:15:06;22.20;;;17.03;;
1320;SDS011;653;51.480;11.992;2023-04-08T15:17:34;20.40;;;16.30;;
1320;SDS011;653;51.480;11.992;2023-04-08T15:20:01;22.30;;;16.23;;
1320;SDS011;653;51.480;11.992;2023-04-08T15:22:27;22.53;;;15.43;;
1320;SDS011;653;51.480;11.992;2023-04-08T15:24:52;24.13;;;17.70;;
1320;SDS011;653;51.480;11.992;2023-04-08T15:27:19;19.63;;;15.40;;
1320;SDS011;653;51.480;11.992;2023-04-08T15:29:46;16.17;;;13.63;;
1320;SDS011;653;51.480;11.992;2023-04-08T15:32:13;16.70;;;14.17;;